»·PEaware :: ACA529 KBOS-CYYZ

ACA529 :: KBOS-CYYZ

FLIGHT INFORMATION

Flight Status: Arrived
Operator:
Air Canada
More flights by this operator :: More flights under this callsign
Pilot: Anonymous 13363 (13363)
Aircraft: EMBRAER EMB-170/175
(E170)
More flights by this aircraft type
Origin: KBOS Logan Intl
United States
Destination: CYYZ Toronto/Pearson Intl
Canada
More flights between these airports :: More routes between these airports
Route: HYLND4 HYLND CAM GONZZ WOZEE LINGG7
File this flight plan on PilotEdge
Remarks:
Altitude:
(Current/Filed)
30,000ft
Speed:
(Current/Filed)
390kts
Departed: 29-Sep-17 09:21 PM
Arrived: 29-Sep-17 10:48 PM
Distance/Time
Traveled:
386nm/1:26
Distance/Time
To Go:
Arrived

Flight Plot

Page will automatically refresh every two minutes.

Flight plan parsing failed; only flown route is shown


Map Options




Map Legend


Flown Route
Filed Route
Departure Airport
Arrival Airport
Navaid (VOR, NDB)
Fix

Horizontal Profiles

Position Reports

Time Latitude Longitude Heading Altitude Ground
Speed
29-Sep-17 21:09 42.362950 -71.019853 132 12ft 0kts
29-Sep-17 21:10 42.362950 -71.019853 132 12ft 0kts
29-Sep-17 21:11 42.362950 -71.019853 132 12ft 0kts
29-Sep-17 21:12 42.362947 -71.019849 132 12ft 0kts
29-Sep-17 21:13 42.362947 -71.019849 132 12ft 0kts
29-Sep-17 21:14 42.362947 -71.019848 132 12ft 0kts
29-Sep-17 21:15 42.362947 -71.019848 132 12ft 0kts
29-Sep-17 21:16 42.362947 -71.019848 132 12ft 0kts
29-Sep-17 21:17 42.362947 -71.019848 132 12ft 0kts
29-Sep-17 21:18 42.363246 -71.020168 200 12ft 0kts
29-Sep-17 21:19 42.362071 -71.022666 202 12ft 15kts
29-Sep-17 21:20 42.359318 -71.020296 121 12ft 12kts
29-Sep-17 21:21 42.358712 -71.015395 17 12ft 20kts
29-Sep-17 21:22 42.365836 -71.012105 20 12ft 31kts
29-Sep-17 21:23 42.371041 -71.015664 316 12ft 19kts
29-Sep-17 21:24 42.374097 -71.017876 72 12ft 12kts
29-Sep-17 21:25 42.352329 -70.985353 121 709ft 169kts
29-Sep-17 21:26 42.332092 -70.938865 120 2332ft 202kts
29-Sep-17 21:27 42.301755 -70.865116 119 4233ft 260kts
29-Sep-17 21:28 42.271806 -70.776052 86 6944ft 274kts
29-Sep-17 21:29 42.328165 -70.725821 351 9328ft 295kts
29-Sep-17 21:30 42.411816 -70.729223 12 11381ft 314kts
29-Sep-17 21:31 42.495666 -70.738935 334 12259ft 349kts
29-Sep-17 21:32 42.564581 -70.823784 300 14286ft 339kts
29-Sep-17 21:33 42.614852 -70.931110 297 16074ft 342kts
29-Sep-17 21:34 42.666823 -71.040360 297 17658ft 347kts
29-Sep-17 21:35 42.720016 -71.150226 296 19102ft 350kts
29-Sep-17 21:36 42.773781 -71.264777 287 19955ft 358kts
29-Sep-17 21:37 42.795519 -71.394299 274 21138ft 351kts
29-Sep-17 21:38 42.808669 -71.525804 273 22152ft 352kts
29-Sep-17 21:39 42.822418 -71.656730 273 23056ft 353kts
29-Sep-17 21:40 42.836562 -71.788646 273 23951ft 354kts
29-Sep-17 21:41 42.850661 -71.920467 273 24720ft 355kts
29-Sep-17 21:42 42.864822 -72.054135 272 25369ft 357kts
29-Sep-17 21:43 42.878931 -72.188765 272 25945ft 359kts
29-Sep-17 21:44 42.892621 -72.320188 272 26993ft 348kts
29-Sep-17 21:45 42.905913 -72.450213 271 27643ft 345kts
29-Sep-17 21:46 42.918937 -72.578913 271 28235ft 342kts
29-Sep-17 21:47 42.931635 -72.705670 271 28868ft 338kts
29-Sep-17 21:48 42.944121 -72.831822 270 29460ft 335kts
29-Sep-17 21:49 42.956584 -72.959628 270 29551ft 344kts
29-Sep-17 21:50 42.969248 -73.090180 271 29612ft 352kts
29-Sep-17 21:51 42.982217 -73.224283 271 29652ft 359kts
29-Sep-17 21:52 42.996281 -73.360139 278 29660ft 371kts
29-Sep-17 21:53 43.043622 -73.487375 268 29715ft 363kts
29-Sep-17 21:54 43.041007 -73.624504 264 29729ft 364kts
29-Sep-17 21:55 43.040635 -73.762796 266 29800ft 369kts
29-Sep-17 21:56 43.043795 -73.903158 266 29952ft 371kts
29-Sep-17 21:57 43.047607 -74.044076 266 30106ft 371kts
29-Sep-17 21:58 43.051300 -74.184914 266 30152ft 373kts
29-Sep-17 21:59 43.054846 -74.326910 266 30200ft 373kts
29-Sep-17 22:00 43.058198 -74.468388 266 30228ft 374kts
29-Sep-17 22:01 43.061386 -74.610332 266 30238ft 374kts
29-Sep-17 22:02 43.064417 -74.750536 266 30131ft 362kts
29-Sep-17 22:03 43.067204 -74.876501 265 30081ft 325kts
29-Sep-17 22:04 43.069376 -75.000654 265 30082ft 328kts
29-Sep-17 22:05 43.071554 -75.125003 265 30079ft 328kts
29-Sep-17 22:06 43.073640 -75.249451 265 30076ft 328kts
29-Sep-17 22:07 43.075599 -75.373916 265 30074ft 328kts
29-Sep-17 22:08 43.077431 -75.498752 265 30071ft 328kts
29-Sep-17 22:09 43.079112 -75.622294 265 30068ft 328kts
29-Sep-17 22:10 43.080709 -75.745813 265 30086ft 327kts
29-Sep-17 22:11 43.082203 -75.870287 265 30059ft 327kts
29-Sep-17 22:12 43.083641 -75.996347 271 30050ft 344kts
29-Sep-17 22:13 43.085122 -76.126872 271 30045ft 344kts
29-Sep-17 22:14 43.086493 -76.257188 271 30043ft 344kts
29-Sep-17 22:15 43.087720 -76.387943 271 30040ft 345kts
29-Sep-17 22:16 43.088797 -76.518930 271 30065ft 345kts
29-Sep-17 22:17 43.089593 -76.646001 270 30063ft 345kts
29-Sep-17 22:18 43.083198 -76.773837 266 30078ft 347kts
29-Sep-17 22:19 43.073502 -76.900639 262 30073ft 328kts
29-Sep-17 22:20 43.064460 -77.026285 262 30079ft 330kts
29-Sep-17 22:21 43.055659 -77.150697 262 30076ft 330kts
29-Sep-17 22:22 43.046807 -77.275042 262 30125ft 331kts
29-Sep-17 22:23 43.037789 -77.400096 262 30125ft 330kts
29-Sep-17 22:24 43.028679 -77.524515 262 30123ft 331kts
29-Sep-17 22:25 43.019425 -77.649048 262 30120ft 331kts
29-Sep-17 22:26 43.010858 -77.763961 262 30137ft 330kts
29-Sep-17 22:27 43.001387 -77.888768 261 30135ft 331kts
29-Sep-17 22:28 42.991729 -78.013526 262 30133ft 337kts
29-Sep-17 22:29 42.982296 -78.133847 261 30130ft 330kts
29-Sep-17 22:30 42.972844 -78.252176 262 30160ft 360kts
29-Sep-17 22:31 42.961980 -78.386865 262 30128ft 373kts
29-Sep-17 22:32 42.951203 -78.520345 262 28605ft 345kts
29-Sep-17 22:33 42.940995 -78.645377 267 26781ft 373kts
29-Sep-17 22:34 42.957720 -78.778168 300 24846ft 353kts
29-Sep-17 22:35 43.015060 -78.878605 309 22960ft 323kts
29-Sep-17 22:36 43.073255 -78.971935 308 21240ft 325kts
29-Sep-17 22:37 43.129711 -79.064598 309 19538ft 312kts
29-Sep-17 22:38 43.187192 -79.154258 322 17660ft 313kts
29-Sep-17 22:39 43.262639 -79.212069 330 15187ft 310kts
29-Sep-17 22:40 43.335661 -79.268118 328 12680ft 289kts
29-Sep-17 22:41 43.404053 -79.324041 328 10232ft 258kts
29-Sep-17 22:42 43.461815 -79.371948 330 6687ft 235kts
29-Sep-17 22:43 43.505628 -79.424571 320 4973ft 180kts
29-Sep-17 22:44 43.541085 -79.468976 320 4138ft 173kts
29-Sep-17 22:45 43.575341 -79.512181 320 3157ft 151kts
29-Sep-17 22:46 43.586502 -79.525939 322 2798ft 141kts
29-Sep-17 22:47 43.586502 -79.525939 322 2798ft 141kts
29-Sep-17 22:48 43.586502 -79.525939 322 2798ft 141kts
29-Sep-17 22:49 43.613279 -79.556574 315 1927ft 134kts
29-Sep-17 22:50 43.639099 -79.591931 321 1396ft 132kts
29-Sep-17 22:51 43.665163 -79.625525 318 703ft 126kts
29-Sep-17 22:52 43.682610 -79.646831 349 533ft 21kts
29-Sep-17 22:53 43.685011 -79.644211 45 536ft 13kts
29-Sep-17 22:54 43.689248 -79.638028 42 541ft 15kts
29-Sep-17 22:55 43.687387 -79.632420 134 552ft 32kts
29-Sep-17 22:56 43.678879 -79.620786 125 568ft 43kts
29-Sep-17 22:57 43.676439 -79.613843 86 563ft 0kts
29-Sep-17 22:58 43.676439 -79.613843 86 563ft 0kts

Navigation Log

Ident Type
Flight plan parsing failed, navigation log unavailable